Time;durP1;ratioP1;P1;durP2;ratioP2;P2;SDS_P1;SDS_P2;PMS_P1;PMS_P2;Temp;Humidity;BMP_temperature;BMP_pressure;BME280_temperature;BME280_humidity;BME280_pressure;Samples;Min_cycle;Max_cycle;Signal;HPM_P1;HPM_P2
2023/06/02 00:02:08;;;;;;;6.15;3.35;;;;;;;;;;5031059;28;20058;-68
2023/06/02 00:04:54;;;;;;;9.18;4.72;;;;;;;;;;5032370;28;20029;-74
2023/06/02 00:07:39;;;;;;;6.15;3.33;;;;;;;;;;5032374;28;20135;-73
2023/06/02 00:10:24;;;;;;;6.88;3.67;;;;;;;;;;5022474;28;20037;-72
2023/06/02 00:13:10;;;;;;;5.78;3.20;;;;;;;;;;5012211;28;20033;-73
2023/06/02 00:15:55;;;;;;;6.38;3.65;;;;;;;;;;5035308;28;20112;-72
2023/06/02 00:18:40;;;;;;;4.47;2.92;;;;;;;;;;5024410;28;20029;-72
2023/06/02 00:21:26;;;;;;;7.13;3.88;;;;;;;;;;5010938;28;20033;-67
2023/06/02 00:24:11;;;;;;;9.68;4.95;;;;;;;;;;5036513;28;20021;-73
2023/06/02 00:26:57;;;;;;;7.95;4.50;;;;;;;;;;5016198;28;20045;-73
2023/06/02 00:29:42;;;;;;;6.30;3.58;;;;;;;;;;5032659;28;20275;-74
2023/06/02 00:32:27;;;;;;;7.43;3.20;;;;;;;;;;5020330;28;20498;-73
2023/06/02 00:35:13;;;;;;;7.18;3.60;;;;;;;;;;4993265;28;20025;-73
2023/06/02 00:38:03;;;;;;;8.02;3.47;;;;;;;;;;5030504;28;20040;-69
2023/06/02 00:40:49;;;;;;;6.15;3.08;;;;;;;;;;5027784;28;20040;-71
2023/06/02 00:43:34;;;;;;;5.03;2.75;;;;;;;;;;4996892;28;20097;-72
2023/06/02 00:46:19;;;;;;;6.75;3.38;;;;;;;;;;5035578;28;20052;-73
2023/06/02 00:49:05;;;;;;;7.55;3.03;;;;;;;;;;5028741;28;20534;-73
2023/06/02 00:51:51;;;;;;;5.90;3.03;;;;;;;;;;5030437;28;20048;-71
2023/06/02 00:54:36;;;;;;;6.25;3.30;;;;;;;;;;5034766;28;20033;-72
2023/06/02 00:57:28;;;;;;;8.25;3.55;;;;;;;;;;5034987;28;20017;-68
2023/06/02 01:00:14;;;;;;;7.50;3.70;;;;;;;;;;5034609;28;20551;-73
2023/06/02 01:02:59;;;;;;;5.38;3.35;;;;;;;;;;5034483;28;20317;-73
2023/06/02 01:05:46;;;;;;;7.15;2.92;;;;;;;;;;5035277;28;20408;-72
2023/06/02 01:08:33;;;;;;;9.25;4.28;;;;;;;;;;5034828;28;20112;-73
2023/06/02 01:11:18;;;;;;;6.28;3.58;;;;;;;;;;5024328;28;20044;-73
2023/06/02 01:14:04;;;;;;;9.55;5.00;;;;;;;;;;5035015;28;20029;-73
2023/06/02 01:16:49;;;;;;;8.70;3.65;;;;;;;;;;5035505;28;20242;-66
2023/06/02 01:19:35;;;;;;;7.88;3.38;;;;;;;;;;5019300;28;20082;-69
2023/06/02 01:22:23;;;;;;;6.50;3.42;;;;;;;;;;5035442;28;20568;-68
2023/06/02 01:25:18;;;;;;;5.30;2.88;;;;;;;;;;5028958;28;20029;-69
2023/06/02 01:28:06;;;;;;;7.78;4.35;;;;;;;;;;5029389;28;20044;-68
2023/06/02 01:31:02;;;;;;;5.80;3.30;;;;;;;;;;5030602;28;20487;-68
2023/06/02 01:33:55;;;;;;;7.38;3.13;;;;;;;;;;5016439;28;20389;-64
2023/06/02 01:36:41;;;;;;;6.55;3.53;;;;;;;;;;5035050;28;20025;-73
2023/06/02 01:39:30;;;;;;;6.07;3.40;;;;;;;;;;5030800;28;20061;-72
2023/06/02 01:42:15;;;;;;;5.37;3.47;;;;;;;;;;5007732;28;20026;-71
2023/06/02 01:45:02;;;;;;;8.82;4.07;;;;;;;;;;5015229;28;20307;-71
2023/06/02 01:47:48;;;;;;;8.05;4.25;;;;;;;;;;5015025;28;20091;-72
2023/06/02 01:50:35;;;;;;;7.10;3.90;;;;;;;;;;5014293;28;20152;-71
2023/06/02 01:53:20;;;;;;;6.60;3.65;;;;;;;;;;5034551;28;20032;-68
2023/06/02 01:56:06;;;;;;;8.63;3.38;;;;;;;;;;5016645;28;20057;-67
2023/06/02 01:58:52;;;;;;;8.43;4.13;;;;;;;;;;5014566;28;20029;-67
2023/06/02 02:01:40;;;;;;;9.05;3.78;;;;;;;;;;5014814;28;20044;-70
2023/06/02 02:04:25;;;;;;;6.72;4.25;;;;;;;;;;5014540;28;20116;-67
2023/06/02 02:07:11;;;;;;;8.07;4.13;;;;;;;;;;5014303;28;20527;-66
2023/06/02 02:09:57;;;;;;;7.25;3.65;;;;;;;;;;5014881;28;20029;-65
2023/06/02 02:12:42;;;;;;;6.13;3.20;;;;;;;;;;5000515;28;20065;-67
2023/06/02 02:15:27;;;;;;;7.88;3.47;;;;;;;;;;5014279;28;20025;-67
2023/06/02 02:18:15;;;;;;;6.72;3.40;;;;;;;;;;5013959;28;20112;-67
2023/06/02 02:21:00;;;;;;;6.00;3.13;;;;;;;;;;5014201;28;20025;-67
2023/06/02 02:23:45;;;;;;;6.97;3.92;;;;;;;;;;5013907;28;20387;-68
2023/06/02 02:26:31;;;;;;;8.93;3.67;;;;;;;;;;5013888;28;20045;-67
2023/06/02 02:29:16;;;;;;;7.13;4.07;;;;;;;;;;5010433;28;20284;-65
2023/06/02 02:32:01;;;;;;;9.82;3.95;;;;;;;;;;5020983;28;20488;-63
2023/06/02 02:34:47;;;;;;;8.93;5.15;;;;;;;;;;5014208;28;20088;-65
2023/06/02 02:37:32;;;;;;;7.55;4.00;;;;;;;;;;5014237;28;20037;-65
2023/06/02 02:40:17;;;;;;;7.10;3.92;;;;;;;;;;5014052;28;20175;-64
2023/06/02 02:43:02;;;;;;;6.70;4.13;;;;;;;;;;5013668;28;20293;-66
2023/06/02 02:45:48;;;;;;;7.50;4.43;;;;;;;;;;5014105;28;20076;-66
2023/06/02 02:48:33;;;;;;;6.35;3.80;;;;;;;;;;5014000;28;20454;-73
2023/06/02 02:51:18;;;;;;;7.15;4.00;;;;;;;;;;5013166;28;20029;-68
2023/06/02 02:54:04;;;;;;;6.93;3.83;;;;;;;;;;5013586;28;20468;-68
2023/06/02 02:56:50;;;;;;;6.43;3.75;;;;;;;;;;5013211;28;20072;-69
2023/06/02 02:59:35;;;;;;;8.25;3.97;;;;;;;;;;5018352;28;20388;-66
2023/06/02 03:02:20;;;;;;;6.97;4.40;;;;;;;;;;5001288;28;20445;-67
2023/06/02 03:05:06;;;;;;;8.02;4.32;;;;;;;;;;4996583;28;20439;-68
2023/06/02 03:07:52;;;;;;;7.45;4.07;;;;;;;;;;5014030;28;20040;-69
2023/06/02 03:10:38;;;;;;;10.32;4.88;;;;;;;;;;5011953;28;20817;-73
2023/06/02 03:13:23;;;;;;;9.95;4.53;;;;;;;;;;5010774;28;20068;-73
2023/06/02 03:16:08;;;;;;;7.25;4.53;;;;;;;;;;5012855;28;20056;-73
2023/06/02 03:18:54;;;;;;;8.18;4.32;;;;;;;;;;5013056;28;20029;-72
2023/06/02 03:21:42;;;;;;;8.15;4.97;;;;;;;;;;5012755;28;20025;-75
2023/06/02 03:24:28;;;;;;;8.73;5.27;;;;;;;;;;5000493;28;20495;-67
2023/06/02 03:27:13;;;;;;;8.98;4.70;;;;;;;;;;5013139;28;20272;-71
2023/06/02 03:29:58;;;;;;;7.90;4.97;;;;;;;;;;5014567;28;20033;-70
2023/06/02 03:32:43;;;;;;;8.65;4.93;;;;;;;;;;5014638;28;20368;-69
2023/06/02 03:35:29;;;;;;;8.30;5.53;;;;;;;;;;5013700;28;20052;-71
2023/06/02 03:38:14;;;;;;;8.77;5.70;;;;;;;;;;5013904;28;20433;-69
2023/06/02 03:41:00;;;;;;;12.82;5.22;;;;;;;;;;5009430;28;20037;-69
2023/06/02 03:43:45;;;;;;;10.90;4.78;;;;;;;;;;5007470;28;20033;-70
2023/06/02 03:46:30;;;;;;;11.00;5.20;;;;;;;;;;5012986;28;20033;-71
2023/06/02 03:49:15;;;;;;;9.23;5.15;;;;;;;;;;5016574;28;20041;-72
2023/06/02 03:52:01;;;;;;;8.00;4.97;;;;;;;;;;5007419;28;20041;-71
2023/06/02 03:54:47;;;;;;;6.97;4.65;;;;;;;;;;5016949;28;20067;-71
2023/06/02 03:57:32;;;;;;;11.15;5.53;;;;;;;;;;5016963;28;20041;-72
2023/06/02 04:00:17;;;;;;;12.82;5.10;;;;;;;;;;5021766;28;20036;-65
2023/06/02 04:03:03;;;;;;;10.02;5.18;;;;;;;;;;5016240;28;20033;-70
2023/06/02 04:05:48;;;;;;;10.27;4.85;;;;;;;;;;5017044;28;20026;-68
2023/06/02 04:08:33;;;;;;;9.55;5.80;;;;;;;;;;5016846;28;20063;-69
2023/06/02 04:11:22;;;;;;;8.15;5.53;;;;;;;;;;5016614;28;20099;-69
2023/06/02 04:14:07;;;;;;;15.02;5.85;;;;;;;;;;5017256;28;20029;-69
2023/06/02 04:16:53;;;;;;;8.85;5.68;;;;;;;;;;5016601;28;20480;-70
2023/06/02 04:19:38;;;;;;;8.88;5.57;;;;;;;;;;5016792;28;20132;-66
2023/06/02 04:22:23;;;;;;;9.77;6.03;;;;;;;;;;5014534;28;20048;-71
2023/06/02 04:25:09;;;;;;;10.93;6.05;;;;;;;;;;5015863;28;20022;-70
2023/06/02 04:27:54;;;;;;;10.05;5.28;;;;;;;;;;5015510;28;20155;-69
2023/06/02 04:30:40;;;;;;;11.52;6.07;;;;;;;;;;5016171;28;20037;-69
2023/06/02 04:33:25;;;;;;;9.32;5.28;;;;;;;;;;5015777;28;20590;-68
2023/06/02 04:36:10;;;;;;;9.68;4.82;;;;;;;;;;5016487;28;20080;-67
2023/06/02 04:38:55;;;;;;;9.48;5.65;;;;;;;;;;5016296;28;20038;-67
2023/06/02 04:41:41;;;;;;;9.85;5.68;;;;;;;;;;5015485;28;20021;-71
2023/06/02 04:44:26;;;;;;;10.57;6.18;;;;;;;;;;5015239;28;20557;-74
2023/06/02 04:47:11;;;;;;;8.90;5.70;;;;;;;;;;5015362;28;20044;-73
2023/06/02 04:49:56;;;;;;;15.48;5.97;;;;;;;;;;5015417;28;20040;-73
2023/06/02 04:52:42;;;;;;;12.30;5.75;;;;;;;;;;5015248;28;20515;-73
2023/06/02 04:55:27;;;;;;;11.27;6.63;;;;;;;;;;5014975;28;20045;-70
2023/06/02 04:58:12;;;;;;;11.48;6.00;;;;;;;;;;5015560;28;20038;-68
2023/06/02 05:00:58;;;;;;;12.30;6.10;;;;;;;;;;5021491;28;20362;-67
2023/06/02 05:03:43;;;;;;;11.07;5.47;;;;;;;;;;5015430;28;20099;-68
2023/06/02 05:06:30;;;;;;;8.82;5.45;;;;;;;;;;5014566;28;20488;-69
2023/06/02 05:09:15;;;;;;;12.15;6.18;;;;;;;;;;5014743;28;20045;-67
2023/06/02 05:12:00;;;;;;;13.15;7.30;;;;;;;;;;5014600;28;20033;-66
2023/06/02 05:14:45;;;;;;;12.68;6.82;;;;;;;;;;5015319;28;20448;-69
2023/06/02 05:17:31;;;;;;;13.02;6.80;;;;;;;;;;5007826;28;20033;-70
2023/06/02 05:20:16;;;;;;;8.75;5.65;;;;;;;;;;5015007;28;20033;-67
2023/06/02 05:23:01;;;;;;;10.30;5.95;;;;;;;;;;5015708;28;20046;-66
2023/06/02 05:25:48;;;;;;;10.98;7.47;;;;;;;;;;5015711;28;20044;-69
2023/06/02 05:28:33;;;;;;;11.40;5.30;;;;;;;;;;5015572;28;20431;-67
2023/06/02 05:31:18;;;;;;;9.93;5.93;;;;;;;;;;5016560;28;20072;-67
2023/06/02 05:34:03;;;;;;;9.93;5.90;;;;;;;;;;5014013;28;20476;-62
2023/06/02 05:36:49;;;;;;;10.73;5.95;;;;;;;;;;5015188;28;20030;-67
2023/06/02 05:39:35;;;;;;;10.55;6.00;;;;;;;;;;5014902;28;20514;-67
2023/06/02 05:42:20;;;;;;;8.05;5.57;;;;;;;;;;5015144;28;20435;-66
2023/06/02 05:45:06;;;;;;;11.65;6.32;;;;;;;;;;5015132;28;20071;-65
2023/06/02 05:47:51;;;;;;;10.52;6.32;;;;;;;;;;5014614;28;20087;-64
2023/06/02 05:50:36;;;;;;;9.25;6.40;;;;;;;;;;5014783;28;20037;-63
2023/06/02 05:53:21;;;;;;;14.18;7.15;;;;;;;;;;5013911;28;20418;-68
2023/06/02 05:56:07;;;;;;;10.88;6.90;;;;;;;;;;5015011;28;20104;-73
2023/06/02 05:58:52;;;;;;;9.82;5.57;;;;;;;;;;5015736;28;20495;-70
2023/06/02 06:01:37;;;;;;;11.68;5.72;;;;;;;;;;5015538;28;20029;-71
2023/06/02 06:04:22;;;;;;;12.00;6.43;;;;;;;;;;5014188;28;20479;-73
2023/06/02 06:07:08;;;;;;;12.00;6.90;;;;;;;;;;5014440;28;20041;-72
2023/06/02 06:09:53;;;;;;;11.07;6.40;;;;;;;;;;5014095;28;20043;-69
2023/06/02 06:12:38;;;;;;;11.80;5.78;;;;;;;;;;5002828;28;20030;-69
2023/06/02 06:15:23;;;;;;;10.90;6.00;;;;;;;;;;5014382;28;20375;-70
2023/06/02 06:18:08;;;;;;;8.82;5.00;;;;;;;;;;5014072;28;20128;-68
2023/06/02 06:20:54;;;;;;;13.88;6.25;;;;;;;;;;5014074;28;20035;-69
2023/06/02 06:23:39;;;;;;;12.00;7.20;;;;;;;;;;5013365;28;20034;-69
2023/06/02 06:26:24;;;;;;;12.50;6.13;;;;;;;;;;5013934;28;20030;-69
2023/06/02 06:29:10;;;;;;;7.65;5.25;;;;;;;;;;5013603;28;20044;-68
2023/06/02 06:31:55;;;;;;;11.50;6.43;;;;;;;;;;5017837;28;20099;-74
2023/06/02 06:34:40;;;;;;;9.52;6.10;;;;;;;;;;5013554;28;20045;-74
2023/06/02 06:37:27;;;;;;;9.75;5.68;;;;;;;;;;5012674;28;20036;-72
2023/06/02 06:40:12;;;;;;;10.80;6.13;;;;;;;;;;5013401;28;20037;-72
2023/06/02 06:42:58;;;;;;;13.10;5.55;;;;;;;;;;5012904;28;20526;-74
2023/06/02 06:45:43;;;;;;;10.68;6.28;;;;;;;;;;5012996;28;20025;-73
2023/06/02 06:48:28;;;;;;;13.35;7.15;;;;;;;;;;5012958;28;20095;-66
2023/06/02 06:51:14;;;;;;;11.38;6.68;;;;;;;;;;5013526;28;20092;-72
2023/06/02 06:53:59;;;;;;;10.20;6.22;;;;;;;;;;5014535;28;20132;-72
2023/06/02 06:56:45;;;;;;;11.82;5.97;;;;;;;;;;5014275;28;20025;-73
2023/06/02 06:59:31;;;;;;;9.93;6.30;;;;;;;;;;5017670;28;20037;-73
2023/06/02 07:02:16;;;;;;;10.38;5.68;;;;;;;;;;5014035;28;20057;-72
2023/06/02 07:05:01;;;;;;;13.20;5.85;;;;;;;;;;5013637;28;20043;-72
2023/06/02 07:07:46;;;;;;;10.50;5.95;;;;;;;;;;5013444;28;20038;-69
2023/06/02 07:10:32;;;;;;;9.25;5.30;;;;;;;;;;4999091;28;20065;-67
2023/06/02 07:13:18;;;;;;;11.13;6.95;;;;;;;;;;4998603;28;20062;-68
2023/06/02 07:16:03;;;;;;;13.02;6.35;;;;;;;;;;5013640;28;20033;-66
2023/06/02 07:18:49;;;;;;;12.40;6.88;;;;;;;;;;5014070;28;20055;-66
2023/06/02 07:21:34;;;;;;;11.05;6.53;;;;;;;;;;5000701;28;20037;-69
2023/06/02 07:24:20;;;;;;;10.68;5.97;;;;;;;;;;5004375;28;20033;-69
2023/06/02 07:27:05;;;;;;;9.93;5.32;;;;;;;;;;5016465;28;20489;-72
2023/06/02 07:29:51;;;;;;;10.30;6.03;;;;;;;;;;5018521;28;20052;-74
2023/06/02 07:32:36;;;;;;;8.15;5.72;;;;;;;;;;5020117;28;20057;-75
2023/06/02 07:35:21;;;;;;;10.30;6.00;;;;;;;;;;5019396;28;20029;-73
2023/06/02 07:38:06;;;;;;;8.95;5.38;;;;;;;;;;5022069;28;20116;-74
2023/06/02 07:40:52;;;;;;;10.70;7.32;;;;;;;;;;5017641;28;20037;-73
2023/06/02 07:43:37;;;;;;;10.60;5.57;;;;;;;;;;5007592;28;20443;-63
2023/06/02 07:46:22;;;;;;;9.35;5.38;;;;;;;;;;5017117;28;20038;-68
2023/06/02 07:49:07;;;;;;;9.60;5.40;;;;;;;;;;5016983;28;20033;-67
2023/06/02 07:51:53;;;;;;;8.95;5.10;;;;;;;;;;5006416;28;20029;-68
2023/06/02 07:54:38;;;;;;;7.18;5.30;;;;;;;;;;5017639;28;20036;-68
2023/06/02 07:57:23;;;;;;;11.60;6.22;;;;;;;;;;5017010;28;20492;-68
2023/06/02 08:00:15;;;;;;;10.43;4.72;;;;;;;;;;5026106;28;20084;-65
2023/06/02 08:03:01;;;;;;;8.82;5.55;;;;;;;;;;5016024;28;20094;-66
2023/06/02 08:05:46;;;;;;;10.05;5.15;;;;;;;;;;5017300;28;20032;-68
2023/06/02 08:08:31;;;;;;;8.68;5.55;;;;;;;;;;5016943;28;20033;-66
2023/06/02 08:11:17;;;;;;;11.00;5.35;;;;;;;;;;5016945;28;20045;-69
2023/06/02 08:14:02;;;;;;;8.65;5.32;;;;;;;;;;5016776;28;20028;-67
2023/06/02 08:16:48;;;;;;;13.48;5.35;;;;;;;;;;5016850;28;20123;-69
2023/06/02 08:19:35;;;;;;;14.68;6.03;;;;;;;;;;5015835;28;20041;-75
2023/06/02 08:22:20;;;;;;;10.45;6.05;;;;;;;;;;5016774;28;20071;-68
2023/06/02 08:25:05;;;;;;;11.27;6.03;;;;;;;;;;5016798;28;20040;-66
2023/06/02 08:27:51;;;;;;;9.23;5.97;;;;;;;;;;5015896;28;20082;-67
2023/06/02 08:30:37;;;;;;;11.35;5.97;;;;;;;;;;5017088;28;20172;-67
2023/06/02 08:33:22;;;;;;;9.40;5.40;;;;;;;;;;5015985;28;20052;-68
2023/06/02 08:36:08;;;;;;;8.60;5.93;;;;;;;;;;5016438;28;20132;-70
2023/06/02 08:38:54;;;;;;;8.20;5.45;;;;;;;;;;5016201;28;20401;-71
2023/06/02 08:41:39;;;;;;;12.52;6.15;;;;;;;;;;5016523;28;20064;-76
2023/06/02 08:44:24;;;;;;;8.80;6.38;;;;;;;;;;5016401;28;20030;-75
2023/06/02 08:47:13;;;;;;;10.88;5.80;;;;;;;;;;5002591;28;20030;-75
2023/06/02 08:50:00;;;;;;;9.25;6.25;;;;;;;;;;5016466;28;20026;-76
2023/06/02 08:52:46;;;;;;;9.90;5.72;;;;;;;;;;5016345;28;20042;-75
2023/06/02 08:55:32;;;;;;;10.25;6.35;;;;;;;;;;5016109;28;20475;-67
2023/06/02 08:58:17;;;;;;;9.57;5.78;;;;;;;;;;5016525;28;20120;-70
2023/06/02 09:01:03;;;;;;;8.38;5.72;;;;;;;;;;5017611;28;20137;-70
2023/06/02 09:03:48;;;;;;;10.02;5.15;;;;;;;;;;4991917;28;20068;-70
2023/06/02 09:06:33;;;;;;;9.38;5.75;;;;;;;;;;5016060;28;20040;-72
2023/06/02 09:09:19;;;;;;;7.57;5.15;;;;;;;;;;5015748;28;20496;-70
2023/06/02 09:12:05;;;;;;;10.63;5.50;;;;;;;;;;5015497;28;20119;-70
2023/06/02 09:15:08;;;;;;;8.10;4.80;;;;;;;;;;5015437;28;20106;-70
2023/06/02 09:18:08;;;;;;;9.98;6.20;;;;;;;;;;5004502;28;20551;-70
2023/06/02 09:20:53;;;;;;;11.82;5.65;;;;;;;;;;5015583;28;20033;-71
2023/06/02 09:23:43;;;;;;;12.90;5.80;;;;;;;;;;5016304;28;20033;-70
2023/06/02 09:26:29;;;;;;;;;;;;;;;;;;5016486;28;20041;-71
2023/06/02 09:29:15;;;;;;;9.73;6.25;;;;;;;;;;5014299;28;19960;-69
2023/06/02 09:32:00;;;;;;;7.88;5.53;;;;;;;;;;5020016;28;20045;-65
2023/06/02 09:34:45;;;;;;;9.38;5.07;;;;;;;;;;5015595;28;20053;-69
2023/06/02 09:37:31;;;;;;;7.78;5.50;;;;;;;;;;5015028;28;20689;-71
2023/06/02 09:40:26;;;;;;;9.80;5.47;;;;;;;;;;5015543;28;20091;-70
2023/06/02 09:43:12;;;;;;;10.27;6.40;;;;;;;;;;5001610;28;20112;-70
2023/06/02 09:45:58;;;;;;;8.13;5.82;;;;;;;;;;5014173;28;20313;-69
2023/06/02 09:49:01;;;;;;;12.38;6.60;;;;;;;;;;5001338;28;20037;-70
2023/06/02 09:51:47;;;;;;;9.63;5.30;;;;;;;;;;5014695;28;20049;-65
2023/06/02 09:54:32;;;;;;;11.80;5.93;;;;;;;;;;5014156;28;20040;-70
2023/06/02 09:57:17;;;;;;;9.38;5.88;;;;;;;;;;5013781;28;20116;-69
2023/06/02 10:00:03;;;;;;;12.38;6.63;;;;;;;;;;5022767;28;20468;-70
2023/06/02 10:02:49;;;;;;;8.75;6.35;;;;;;;;;;5014810;28;20039;-70
2023/06/02 10:05:35;;;;;;;10.43;5.45;;;;;;;;;;5015034;28;20068;-70
2023/06/02 10:08:23;;;;;;;10.35;5.65;;;;;;;;;;5014996;28;20044;-70
2023/06/02 10:11:27;;;;;;;10.68;5.93;;;;;;;;;;5014701;28;20167;-64
2023/06/02 10:14:28;;;;;;;9.18;5.53;;;;;;;;;;5014488;28;20029;-64
2023/06/02 10:17:25;;;;;;;10.35;6.07;;;;;;;;;;5014808;28;20120;-65
2023/06/02 10:20:20;;;;;;;8.98;5.93;;;;;;;;;;5014234;28;20025;-65
2023/06/02 10:23:24;;;;;;;6.75;4.97;;;;;;;;;;5004937;28;20064;-65
2023/06/02 10:26:12;;;;;;;9.00;5.32;;;;;;;;;;5014386;28;20048;-66
2023/06/02 10:28:59;;;;;;;9.27;5.80;;;;;;;;;;5013937;28;20029;-65
2023/06/02 10:31:44;;;;;;;10.35;6.28;;;;;;;;;;5018068;28;20033;-74
2023/06/02 10:34:36;;;;;;;9.60;5.10;;;;;;;;;;5000338;28;20423;-74
2023/06/02 10:37:22;;;;;;;9.20;4.78;;;;;;;;;;5000673;28;20036;-76
2023/06/02 10:40:10;;;;;;;8.35;4.82;;;;;;;;;;5000104;28;20032;-74
2023/06/02 10:43:10;;;;;;;11.48;5.72;;;;;;;;;;5014010;28;20345;-74
2023/06/02 10:45:55;;;;;;;;;;;;;;;;;;5014717;28;20124;-73
2023/06/02 10:48:41;;;;;;;10.55;5.07;;;;;;;;;;5013476;28;19921;-74
2023/06/02 10:51:47;;;;;;;7.75;5.15;;;;;;;;;;5013026;28;20025;-73
2023/06/02 10:54:32;;;;;;;11.57;5.75;;;;;;;;;;5013556;28;20061;-74
2023/06/02 10:57:37;;;;;;;12.63;6.05;;;;;;;;;;5013313;28;20037;-73
2023/06/02 11:00:32;;;;;;;9.88;5.75;;;;;;;;;;5027186;28;20052;-76
2023/06/02 11:03:17;;;;;;;9.00;5.10;;;;;;;;;;5009924;28;20550;-75
2023/06/02 11:06:15;;;;;;;8.15;4.97;;;;;;;;;;5014108;28;20029;-71
2023/06/02 11:09:21;;;;;;;8.00;4.27;;;;;;;;;;5013599;28;20026;-72
2023/06/02 11:12:06;;;;;;;10.65;5.82;;;;;;;;;;5012532;28;20060;-70
2023/06/02 11:15:01;;;;;;;8.85;5.18;;;;;;;;;;5013933;28;20037;-70
2023/06/02 11:17:47;;;;;;;8.57;4.93;;;;;;;;;;5000214;28;20032;-71
2023/06/02 11:20:34;;;;;;;8.15;4.90;;;;;;;;;;5013840;28;20029;-70
2023/06/02 11:23:20;;;;;;;12.07;4.60;;;;;;;;;;5013316;28;20033;-68
2023/06/02 11:26:06;;;;;;;7.68;4.43;;;;;;;;;;5013587;28;20038;-75
2023/06/02 11:28:51;;;;;;;6.82;4.75;;;;;;;;;;5013566;28;20041;-73
2023/06/02 11:31:46;;;;;;;8.68;5.57;;;;;;;;;;5013518;28;20426;-74
2023/06/02 11:34:31;;;;;;;8.10;4.22;;;;;;;;;;5013747;28;20383;-74
2023/06/02 11:37:20;;;;;;;14.50;5.68;;;;;;;;;;5013601;28;20036;-74
2023/06/02 11:40:07;;;;;;;6.78;4.32;;;;;;;;;;5013792;28;20033;-64
2023/06/02 11:42:52;;;;;;;7.57;4.90;;;;;;;;;;5013267;28;20416;-63
2023/06/02 11:45:38;;;;;;;7.88;4.68;;;;;;;;;;5013625;28;20049;-74
2023/06/02 11:48:25;;;;;;;9.35;4.80;;;;;;;;;;4999748;28;20388;-73
2023/06/02 11:51:12;;;;;;;8.40;4.00;;;;;;;;;;5012960;28;20092;-75
2023/06/02 11:53:58;;;;;;;6.75;4.00;;;;;;;;;;4999827;28;20420;-73
2023/06/02 11:56:44;;;;;;;7.82;4.45;;;;;;;;;;5013631;28;20342;-72
2023/06/02 11:59:30;;;;;;;6.72;4.35;;;;;;;;;;5013810;28;20021;-67
2023/06/02 12:02:23;;;;;;;8.27;4.28;;;;;;;;;;5013589;28;20072;-74
2023/06/02 12:05:12;;;;;;;5.97;4.22;;;;;;;;;;5013326;28;20036;-74
2023/06/02 12:08:10;;;;;;;6.60;4.10;;;;;;;;;;5013856;28;20116;-74
2023/06/02 12:10:58;;;;;;;6.93;4.17;;;;;;;;;;5017089;28;20038;-74
2023/06/02 12:13:56;;;;;;;8.50;4.78;;;;;;;;;;5017011;28;20310;-74
2023/06/02 12:16:43;;;;;;;9.05;4.22;;;;;;;;;;5003610;28;20033;-69
2023/06/02 12:19:29;;;;;;;8.63;4.50;;;;;;;;;;5016574;28;20060;-64
2023/06/02 12:22:15;;;;;;;6.90;4.10;;;;;;;;;;5016109;28;20025;-65
2023/06/02 12:25:10;;;;;;;9.65;4.90;;;;;;;;;;5016776;28;20365;-66
2023/06/02 12:28:12;;;;;;;7.68;4.00;;;;;;;;;;5016303;28;20037;-65
2023/06/02 12:30:57;;;;;;;7.82;4.18;;;;;;;;;;5019750;28;20033;-67
2023/06/02 12:33:43;;;;;;;5.55;3.25;;;;;;;;;;5016753;28;20032;-67
2023/06/02 12:36:28;;;;;;;8.05;3.85;;;;;;;;;;5016840;28;20037;-67
2023/06/02 12:39:14;;;;;;;6.82;3.72;;;;;;;;;;5015214;28;20072;-66
2023/06/02 12:41:59;;;;;;;11.20;3.88;;;;;;;;;;5016216;28;20037;-65
2023/06/02 12:44:46;;;;;;;6.25;3.97;;;;;;;;;;5016505;28;20037;-66
2023/06/02 12:47:33;;;;;;;5.00;3.80;;;;;;;;;;5016385;28;20060;-66
2023/06/02 12:50:19;;;;;;;6.68;4.22;;;;;;;;;;5014959;28;20037;-68
2023/06/02 12:53:05;;;;;;;7.80;3.97;;;;;;;;;;5015396;28;20029;-68
2023/06/02 12:55:50;;;;;;;5.88;3.63;;;;;;;;;;5015989;28;20384;-74
2023/06/02 12:58:36;;;;;;;8.48;4.30;;;;;;;;;;5015764;28;20431;-69
2023/06/02 13:01:21;;;;;;;7.07;3.60;;;;;;;;;;5018516;28;20406;-69
2023/06/02 13:04:07;;;;;;;5.85;3.38;;;;;;;;;;5001512;28;20534;-70
2023/06/02 13:06:52;;;;;;;6.97;3.75;;;;;;;;;;5015242;28;20079;-69
2023/06/02 13:09:37;;;;;;;6.68;4.03;;;;;;;;;;5015292;28;20033;-69
2023/06/02 13:12:22;;;;;;;6.18;3.85;;;;;;;;;;5015278;28;20037;-67
2023/06/02 13:15:08;;;;;;;6.00;3.83;;;;;;;;;;5015809;28;20029;-63
2023/06/02 13:17:53;;;;;;;6.95;4.00;;;;;;;;;;5015948;28;20111;-65
2023/06/02 13:20:39;;;;;;;6.78;3.75;;;;;;;;;;5014445;28;20053;-65
2023/06/02 13:23:25;;;;;;;6.43;3.50;;;;;;;;;;5015556;28;20080;-64
2023/06/02 13:26:10;;;;;;;8.43;3.70;;;;;;;;;;5015527;28;20037;-66
2023/06/02 13:28:55;;;;;;;6.38;3.65;;;;;;;;;;5015463;28;20353;-63
2023/06/02 13:31:41;;;;;;;9.80;4.55;;;;;;;;;;5019686;28;20500;-66
2023/06/02 13:34:29;;;;;;;8.88;4.25;;;;;;;;;;5015092;28;20490;-69
2023/06/02 13:37:14;;;;;;;5.60;3.27;;;;;;;;;;5015469;28;20077;-71
2023/06/02 13:40:00;;;;;;;5.85;3.60;;;;;;;;;;5015273;28;20396;-70
2023/06/02 13:42:45;;;;;;;7.18;4.43;;;;;;;;;;5012777;28;20025;-70
2023/06/02 13:45:30;;;;;;;10.07;4.53;;;;;;;;;;5015381;28;20404;-71
2023/06/02 13:48:16;;;;;;;5.43;3.60;;;;;;;;;;5015172;28;20043;-70
2023/06/02 13:51:01;;;;;;;6.68;4.05;;;;;;;;;;5014845;28;20144;-74
2023/06/02 13:53:46;;;;;;;7.38;3.83;;;;;;;;;;5015347;28;20033;-70
2023/06/02 13:56:32;;;;;;;5.43;3.72;;;;;;;;;;5015016;28;20057;-71
2023/06/02 13:59:18;;;;;;;8.75;4.13;;;;;;;;;;5012040;28;20080;-74
2023/06/02 14:02:04;;;;;;;9.05;3.67;;;;;;;;;;5015067;28;20033;-70
2023/06/02 14:04:49;;;;;;;6.40;4.32;;;;;;;;;;5014847;28;20411;-71
2023/06/02 14:07:35;;;;;;;6.97;3.58;;;;;;;;;;5014784;28;20480;-74
2023/06/02 14:10:21;;;;;;;10.68;4.70;;;;;;;;;;5014517;28;20125;-70
2023/06/02 14:13:07;;;;;;;5.95;3.45;;;;;;;;;;5013259;28;20037;-74
2023/06/02 14:15:52;;;;;;;5.30;3.58;;;;;;;;;;5014213;28;20033;-73
2023/06/02 14:18:37;;;;;;;7.97;4.18;;;;;;;;;;5013750;28;20041;-73
2023/06/02 14:21:23;;;;;;;6.88;4.25;;;;;;;;;;5013265;28;20029;-75
2023/06/02 14:24:09;;;;;;;5.78;3.75;;;;;;;;;;5011721;28;20037;-75
2023/06/02 14:26:56;;;;;;;7.90;3.95;;;;;;;;;;5013377;28;20104;-75
2023/06/02 14:29:41;;;;;;;10.63;4.75;;;;;;;;;;5014470;28;20105;-66
2023/06/02 14:32:26;;;;;;;6.07;3.58;;;;;;;;;;5013517;28;20018;-66
2023/06/02 14:35:12;;;;;;;6.57;3.58;;;;;;;;;;5014081;28;20381;-64
2023/06/02 14:37:57;;;;;;;5.00;3.50;;;;;;;;;;5014562;28;20123;-68
2023/06/02 14:40:42;;;;;;;5.53;3.97;;;;;;;;;;5014176;28;20419;-68
2023/06/02 14:43:27;;;;;;;6.57;4.25;;;;;;;;;;5014417;28;20131;-66
2023/06/02 14:46:13;;;;;;;4.95;3.58;;;;;;;;;;5014364;28;20049;-65
2023/06/02 14:48:58;;;;;;;7.85;3.70;;;;;;;;;;5014328;28;20037;-63
2023/06/02 14:51:43;;;;;;;6.00;3.70;;;;;;;;;;5013616;28;20037;-63
2023/06/02 14:54:29;;;;;;;4.88;3.33;;;;;;;;;;5014234;28;20033;-65
2023/06/02 14:57:14;;;;;;;5.75;3.88;;;;;;;;;;5014253;28;20064;-64
2023/06/02 14:59:59;;;;;;;5.72;3.85;;;;;;;;;;5022858;28;20787;-66
2023/06/02 15:02:45;;;;;;;6.03;3.80;;;;;;;;;;5014094;28;20030;-65
2023/06/02 15:05:30;;;;;;;7.35;3.75;;;;;;;;;;5014080;28;20055;-70
2023/06/02 15:08:15;;;;;;;7.55;4.22;;;;;;;;;;5014258;28;20115;-67
2023/06/02 15:11:00;;;;;;;7.70;3.53;;;;;;;;;;5014233;28;20060;-67
2023/06/02 15:13:46;;;;;;;6.85;3.83;;;;;;;;;;5013948;28;20064;-67
2023/06/02 15:16:31;;;;;;;4.47;3.47;;;;;;;;;;5006251;28;20447;-68
2023/06/02 15:19:16;;;;;;;8.00;4.45;;;;;;;;;;5000366;28;20061;-68
2023/06/02 15:22:02;;;;;;;6.40;3.72;;;;;;;;;;5014003;28;20056;-67
2023/06/02 15:24:47;;;;;;;10.32;4.55;;;;;;;;;;5013977;28;20029;-66
2023/06/02 15:27:35;;;;;;;8.43;3.60;;;;;;;;;;5013713;28;20026;-66
2023/06/02 15:30:20;;;;;;;9.98;4.15;;;;;;;;;;5004267;28;20055;-66
2023/06/02 15:33:05;;;;;;;6.68;3.80;;;;;;;;;;5002301;28;19943;-66
2023/06/02 15:35:50;;;;;;;7.82;4.95;;;;;;;;;;5013817;28;20030;-65
2023/06/02 15:38:36;;;;;;;9.07;4.18;;;;;;;;;;5013841;28;20053;-66
2023/06/02 15:41:21;;;;;;;6.47;4.10;;;;;;;;;;5000183;28;20060;-74
2023/06/02 15:44:06;;;;;;;5.95;3.65;;;;;;;;;;5015341;28;20468;-74
2023/06/02 15:46:51;;;;;;;9.50;4.53;;;;;;;;;;5017808;28;20044;-74
2023/06/02 15:49:37;;;;;;;8.15;3.90;;;;;;;;;;5003448;28;20025;-76
2023/06/02 15:52:22;;;;;;;10.05;4.40;;;;;;;;;;5017494;28;20049;-74
2023/06/02 15:55:07;;;;;;;6.65;3.80;;;;;;;;;;5017198;28;20499;-75
2023/06/02 15:57:59;;;;;;;5.28;3.63;;;;;;;;;;5017199;28;20029;-66
2023/06/02 16:00:44;;;;;;;9.32;3.95;;;;;;;;;;5009657;28;20211;-63
2023/06/02 16:03:29;;;;;;;5.55;3.92;;;;;;;;;;5017251;28;20029;-72
2023/06/02 16:06:14;;;;;;;5.57;3.50;;;;;;;;;;5014867;28;20098;-72
2023/06/02 16:09:00;;;;;;;6.43;3.83;;;;;;;;;;5015882;28;20032;-71
2023/06/02 16:11:45;;;;;;;6.05;3.97;;;;;;;;;;5015898;28;20120;-71
2023/06/02 16:14:30;;;;;;;7.63;4.10;;;;;;;;;;5015620;28;20600;-71
2023/06/02 16:17:15;;;;;;;7.28;4.25;;;;;;;;;;5016694;28;20040;-67
2023/06/02 16:20:01;;;;;;;5.90;3.80;;;;;;;;;;5016933;28;20042;-75
2023/06/02 16:22:46;;;;;;;8.68;3.97;;;;;;;;;;5017091;28;20021;-74
2023/06/02 16:25:31;;;;;;;7.60;4.50;;;;;;;;;;5016596;28;20049;-75
2023/06/02 16:28:17;;;;;;;6.65;3.92;;;;;;;;;;4995747;28;20040;-75
2023/06/02 16:31:02;;;;;;;9.30;3.85;;;;;;;;;;5020370;28;20033;-75
2023/06/02 16:33:48;;;;;;;6.28;4.35;;;;;;;;;;5010743;28;20045;-75
2023/06/02 16:36:33;;;;;;;5.13;3.58;;;;;;;;;;5016057;28;20030;-65